Richmond North's Hourly Summary for Tuesday, May 15, 2018
Hour Temp
(f)
RH
(%)
Solar Rad.
(MJ/m2)
Rainfall
(in)
Wind
(mph)
5/15/2018 12:00 AM 67 95 0 0 0
5/15/2018 1:00 AM 65 97 0 0 0
5/15/2018 2:00 AM 64 98 0 0 0
5/15/2018 3:00 AM 63 98 0 0 0
5/15/2018 4:00 AM 63 98 0 0 0
5/15/2018 5:00 AM 62 99 0 0 0
5/15/2018 6:00 AM 61 99 0.06 0 0
5/15/2018 7:00 AM 68 99 0.44 0 0
5/15/2018 8:00 AM 75 77 0.86 0 0.8
5/15/2018 9:00 AM 78 70 1.32 0 1.9
5/15/2018 10:00 AM 81 57 2.42 0 2.54
5/15/2018 11:00 AM 83 51 3 0 2.08
5/15/2018 12:00 PM 85 44 3.31 0 2.5
5/15/2018 1:00 PM 87 40 3.34 0 2.73
5/15/2018 2:00 PM 89 35 3.17 0 3.09
5/15/2018 3:00 PM 90 33 2.82 0 3.57
5/15/2018 4:00 PM 90 35 2.21 0 4.08
5/15/2018 5:00 PM 89 36 1.52 0 3.53
5/15/2018 6:00 PM 88 36 0.91 0 3.47
5/15/2018 7:00 PM 82 43 0.17 0 1.26
5/15/2018 8:00 PM 76 58 0 0 0.16
5/15/2018 9:00 PM 71 73 0 0 0
5/15/2018 10:00 PM 71 78 0 0 0.35
5/15/2018 11:00 PM 70 79 0 0 0.05
Data Summary 75 67 25.55 0.00 1.34